Augusta Springs, Virginia
Current Conditions -  °F | °C
As of 12:55 PM on Friday 31 Oct 2014 (Local Time) from KW13 Reporting Station
Overcast Overcast  
Wind Chill:   Ceiling: 5000
Heat Index:   Visibility: 10mi
Dew Point:   Wind: 0mph
Humidity: 58%   Direction: NA
Pressure: 29.89"   Gusts: NA
Location:  38.1°N, 79.32°W
Report Text: KW13 311655Z AUTO 00000KT 10SM OVC050 09/01 A2989 RMK AO1 T00910012
Loading
Personal Weather Stations






























Interactive Weather Map
Tropical Storm Tracking
New forecast layout! Learn more

10-Day Weather Forecast

Advertisements
Track Severe Weather on mobile